BTV152 WAAA-WARR
Flight info
| Callsign | BTV152 |
|---|---|
| Flight time | 1h 10m |
| Altitude | 38000 |
| Route | ENDOG T16 KOLTA |
| Aircraft | A319/M-SDE3FGHIRWY/LB1 |
Departure
| Time | 2026-04-23 13:34 |
|---|---|
| Airport | Sultan Hasanuddin International Airport (WAAA) |
Arrival
| Time | 2026-04-23 14:44 |
|---|---|
| Airport | Juanda International Airport (WARR) |
| Time | Latitude | Longitude | Altitude | Speed | Heading |
|---|---|---|---|---|---|
| 2026-04-23 13:15 | -5.07689 | 119.54997 | 51 ft | 0 kts | 119° |
| 2026-04-23 13:22 | -5.07682 | 119.54985 | 51 ft | 2 kts | 118° |
| 2026-04-23 13:22 | -5.07675 | 119.54972 | 52 ft | 2 kts | 119° |
| 2026-04-23 13:23 | -5.07667 | 119.54958 | 51 ft | 2 kts | 124° |
| 2026-04-23 13:23 | -5.07656 | 119.54948 | 51 ft | 2 kts | 149° |
| 2026-04-23 13:23 | -5.07642 | 119.54942 | 51 ft | 2 kts | 171° |
| 2026-04-23 13:23 | -5.07626 | 119.54942 | 51 ft | 2 kts | 192° |
| 2026-04-23 13:24 | -5.07616 | 119.54945 | 51 ft | 0 kts | 207° |
| 2026-04-23 13:24 | -5.07610 | 119.54949 | 52 ft | 0 kts | 210° |
| 2026-04-23 13:26 | -5.07628 | 119.54939 | 51 ft | 6 kts | 210° |
| 2026-04-23 13:26 | -5.07681 | 119.54908 | 51 ft | 9 kts | 209° |
| 2026-04-23 13:27 | -5.07745 | 119.54872 | 51 ft | 11 kts | 209° |
| 2026-04-23 13:27 | -5.07819 | 119.54831 | 51 ft | 12 kts | 209° |
| 2026-04-23 13:27 | -5.07898 | 119.54786 | 51 ft | 13 kts | 210° |
| 2026-04-23 13:27 | -5.07955 | 119.54754 | 51 ft | 6 kts | 208° |
| 2026-04-23 13:28 | -5.08001 | 119.54752 | 51 ft | 7 kts | 151° |
| 2026-04-23 13:28 | -5.08035 | 119.54801 | 51 ft | 9 kts | 119° |
| 2026-04-23 13:28 | -5.08065 | 119.54844 | 51 ft | 6 kts | 147° |
| 2026-04-23 13:28 | -5.08114 | 119.54842 | 51 ft | 8 kts | 202° |
| 2026-04-23 13:29 | -5.08169 | 119.54812 | 51 ft | 9 kts | 210° |
| 2026-04-23 13:29 | -5.08234 | 119.54775 | 51 ft | 11 kts | 210° |
| 2026-04-23 13:29 | -5.08308 | 119.54732 | 51 ft | 12 kts | 210° |
| 2026-04-23 13:29 | -5.08390 | 119.54684 | 51 ft | 13 kts | 210° |
| 2026-04-23 13:30 | -5.08479 | 119.54633 | 51 ft | 14 kts | 210° |
| 2026-04-23 13:30 | -5.08570 | 119.54580 | 51 ft | 15 kts | 210° |
| 2026-04-23 13:30 | -5.08665 | 119.54525 | 51 ft | 16 kts | 210° |
| 2026-04-23 13:30 | -5.08765 | 119.54467 | 51 ft | 16 kts | 210° |
| 2026-04-23 13:31 | -5.08868 | 119.54408 | 51 ft | 17 kts | 210° |
| 2026-04-23 13:31 | -5.08973 | 119.54347 | 51 ft | 17 kts | 210° |
| 2026-04-23 13:31 | -5.09077 | 119.54287 | 51 ft | 11 kts | 210° |
| 2026-04-23 13:31 | -5.09138 | 119.54278 | 51 ft | 10 kts | 152° |
| 2026-04-23 13:32 | -5.09182 | 119.54340 | 51 ft | 11 kts | 120° |
| 2026-04-23 13:32 | -5.09208 | 119.54387 | 51 ft | 4 kts | 119° |
| 2026-04-23 13:32 | -5.09213 | 119.54405 | 51 ft | 2 kts | 69° |
| 2026-04-23 13:32 | -5.09193 | 119.54423 | 51 ft | 3 kts | 30° |
| 2026-04-23 13:33 | -5.09190 | 119.54424 | 51 ft | 0 kts | 30° |
| 2026-04-23 13:33 | -5.09182 | 119.54430 | 51 ft | 8 kts | 30° |
| 2026-04-23 13:33 | -5.08907 | 119.54588 | 52 ft | 89 kts | 30° |
| 2026-04-23 13:33 | -5.08141 | 119.55031 | 82 ft | 159 kts | 30° |
| 2026-04-23 13:34 | -5.07132 | 119.55624 | 792 ft | 169 kts | 29° |
| 2026-04-23 13:34 | -5.06070 | 119.55978 | 1786 ft | 167 kts | 3° |
| 2026-04-23 13:34 | -5.04928 | 119.55909 | 2477 ft | 172 kts | 354° |
| 2026-04-23 13:34 | -5.03693 | 119.55839 | 2987 ft | 189 kts | 358° |
| 2026-04-23 13:35 | -5.02334 | 119.55603 | 3457 ft | 210 kts | 331° |
| 2026-04-23 13:35 | -5.01319 | 119.54466 | 3959 ft | 232 kts | 289° |
| 2026-04-23 13:35 | -5.01275 | 119.52805 | 4542 ft | 251 kts | 252° |
| 2026-04-23 13:35 | -5.02047 | 119.51145 | 5228 ft | 267 kts | 241° |
| 2026-04-23 13:36 | -5.02954 | 119.49461 | 6162 ft | 273 kts | 242° |
| 2026-04-23 13:36 | -5.03797 | 119.47757 | 7135 ft | 276 kts | 245° |
| 2026-04-23 13:36 | -5.04617 | 119.45930 | 8099 ft | 280 kts | 246° |
| 2026-04-23 13:36 | -5.05381 | 119.44095 | 9012 ft | 284 kts | 248° |
| 2026-04-23 13:37 | -5.06131 | 119.42204 | 9893 ft | 288 kts | 249° |
| 2026-04-23 13:37 | -5.06866 | 119.40295 | 10674 ft | 294 kts | 249° |
| 2026-04-23 13:37 | -5.07625 | 119.38290 | 11125 ft | 311 kts | 249° |
| 2026-04-23 13:37 | -5.08429 | 119.36146 | 11505 ft | 330 kts | 249° |
| 2026-04-23 13:38 | -5.09265 | 119.33897 | 11875 ft | 347 kts | 250° |
| 2026-04-23 13:38 | -5.10142 | 119.31510 | 12535 ft | 355 kts | 250° |
| 2026-04-23 13:38 | -5.11015 | 119.29134 | 13318 ft | 357 kts | 250° |
| 2026-04-23 13:38 | -5.11902 | 119.26720 | 14059 ft | 361 kts | 250° |
| 2026-04-23 13:39 | -5.12786 | 119.24320 | 14757 ft | 365 kts | 250° |
| 2026-04-23 13:39 | -5.13695 | 119.21853 | 15451 ft | 369 kts | 250° |
| 2026-04-23 13:39 | -5.14598 | 119.19403 | 16117 ft | 372 kts | 250° |
| 2026-04-23 13:39 | -5.15508 | 119.16936 | 16763 ft | 376 kts | 250° |
| 2026-04-23 13:40 | -5.16434 | 119.14425 | 17397 ft | 379 kts | 250° |
| 2026-04-23 13:40 | -5.17378 | 119.11865 | 18023 ft | 383 kts | 250° |
| 2026-04-23 13:40 | -5.18334 | 119.09271 | 18638 ft | 387 kts | 250° |
| 2026-04-23 13:40 | -5.19292 | 119.06674 | 19234 ft | 390 kts | 250° |
| 2026-04-23 13:41 | -5.20266 | 119.04031 | 19821 ft | 393 kts | 250° |
| 2026-04-23 13:41 | -5.21234 | 119.01405 | 20384 ft | 397 kts | 250° |
| 2026-04-23 13:41 | -5.22196 | 118.98795 | 20923 ft | 400 kts | 250° |
| 2026-04-23 13:41 | -5.23175 | 118.96139 | 21451 ft | 403 kts | 250° |
| 2026-04-23 13:42 | -5.24170 | 118.93437 | 21970 ft | 406 kts | 249° |
| 2026-04-23 13:42 | -5.25188 | 118.90677 | 22481 ft | 410 kts | 249° |
| 2026-04-23 13:42 | -5.26187 | 118.87965 | 22967 ft | 412 kts | 249° |
| 2026-04-23 13:42 | -5.27208 | 118.85194 | 23447 ft | 415 kts | 249° |
| 2026-04-23 13:43 | -5.28231 | 118.82414 | 23909 ft | 419 kts | 249° |
| 2026-04-23 13:43 | -5.29253 | 118.79642 | 24357 ft | 421 kts | 249° |
| 2026-04-23 13:43 | -5.30284 | 118.76841 | 24797 ft | 424 kts | 249° |
| 2026-04-23 13:43 | -5.31314 | 118.74042 | 25222 ft | 427 kts | 249° |
| 2026-04-23 13:44 | -5.32361 | 118.71199 | 25643 ft | 430 kts | 249° |
| 2026-04-23 13:44 | -5.33422 | 118.68316 | 26060 ft | 433 kts | 249° |
| 2026-04-23 13:44 | -5.34491 | 118.65411 | 26469 ft | 435 kts | 249° |
| 2026-04-23 13:44 | -5.35563 | 118.62497 | 26867 ft | 438 kts | 249° |
| 2026-04-23 13:45 | -5.36632 | 118.59590 | 27254 ft | 441 kts | 249° |
| 2026-04-23 13:45 | -5.37702 | 118.56683 | 27633 ft | 443 kts | 249° |
| 2026-04-23 13:45 | -5.38772 | 118.53771 | 28006 ft | 446 kts | 249° |
| 2026-04-23 13:45 | -5.39850 | 118.50841 | 28366 ft | 448 kts | 249° |
| 2026-04-23 13:46 | -5.40946 | 118.47858 | 28725 ft | 451 kts | 249° |
| 2026-04-23 13:46 | -5.42042 | 118.44878 | 29068 ft | 453 kts | 249° |
| 2026-04-23 13:46 | -5.43149 | 118.41863 | 29480 ft | 453 kts | 249° |
| 2026-04-23 13:46 | -5.44227 | 118.38929 | 29955 ft | 452 kts | 249° |
| 2026-04-23 13:47 | -5.45332 | 118.35922 | 30432 ft | 450 kts | 249° |
| 2026-04-23 13:47 | -5.46418 | 118.32960 | 30876 ft | 449 kts | 250° |
| 2026-04-23 13:47 | -5.47497 | 118.30003 | 31303 ft | 448 kts | 250° |
| 2026-04-23 13:47 | -5.48570 | 118.27065 | 31720 ft | 448 kts | 250° |
| 2026-04-23 13:48 | -5.49647 | 118.24122 | 32133 ft | 447 kts | 250° |
| 2026-04-23 13:48 | -5.50733 | 118.21155 | 32543 ft | 446 kts | 250° |
| 2026-04-23 13:48 | -5.51813 | 118.18207 | 32943 ft | 445 kts | 250° |
| 2026-04-23 13:48 | -5.52904 | 118.15233 | 33339 ft | 444 kts | 250° |
| 2026-04-23 13:49 | -5.53966 | 118.12336 | 33716 ft | 444 kts | 250° |
| 2026-04-23 13:49 | -5.55043 | 118.09397 | 34090 ft | 443 kts | 250° |
| 2026-04-23 13:49 | -5.56112 | 118.06480 | 34452 ft | 442 kts | 250° |
| 2026-04-23 13:49 | -5.57179 | 118.03570 | 34806 ft | 442 kts | 250° |
| 2026-04-23 13:50 | -5.58240 | 118.00675 | 35148 ft | 441 kts | 250° |
| 2026-04-23 13:50 | -5.59310 | 117.97753 | 35483 ft | 440 kts | 250° |
| 2026-04-23 13:50 | -5.60377 | 117.94842 | 35804 ft | 440 kts | 250° |
| 2026-04-23 13:50 | -5.61441 | 117.91935 | 36110 ft | 439 kts | 250° |
| 2026-04-23 13:51 | -5.62508 | 117.89024 | 36384 ft | 439 kts | 250° |
| 2026-04-23 13:51 | -5.63578 | 117.86100 | 36603 ft | 440 kts | 250° |
| 2026-04-23 13:51 | -5.64642 | 117.83195 | 36791 ft | 442 kts | 250° |
| 2026-04-23 13:51 | -5.65722 | 117.80244 | 36981 ft | 443 kts | 250° |
| 2026-04-23 13:52 | -5.66788 | 117.77333 | 37166 ft | 444 kts | 250° |
| 2026-04-23 13:52 | -5.67861 | 117.74401 | 37346 ft | 445 kts | 250° |
| 2026-04-23 13:52 | -5.68939 | 117.71457 | 37517 ft | 446 kts | 250° |
| 2026-04-23 13:52 | -5.70026 | 117.68485 | 37682 ft | 447 kts | 250° |
| 2026-04-23 13:53 | -5.71100 | 117.65550 | 37838 ft | 448 kts | 250° |
| 2026-04-23 13:53 | -5.72203 | 117.62534 | 37983 ft | 449 kts | 250° |
| 2026-04-23 13:53 | -5.73280 | 117.59588 | 37995 ft | 450 kts | 250° |
| 2026-04-23 13:54 | -5.75464 | 117.53600 | 38005 ft | 451 kts | 250° |
| 2026-04-23 13:54 | -5.77655 | 117.47588 | 38004 ft | 451 kts | 250° |
| 2026-04-23 13:55 | -5.79832 | 117.41627 | 38004 ft | 451 kts | 250° |
| 2026-04-23 13:55 | -5.81999 | 117.35699 | 38004 ft | 451 kts | 250° |
| 2026-04-23 13:56 | -5.84159 | 117.29774 | 38004 ft | 451 kts | 250° |
| 2026-04-23 13:56 | -5.86329 | 117.23783 | 38003 ft | 451 kts | 251° |
| 2026-04-23 13:57 | -5.88057 | 117.17646 | 38003 ft | 451 kts | 257° |
| 2026-04-23 13:57 | -5.89211 | 117.11437 | 38004 ft | 451 kts | 260° |
| 2026-04-23 13:58 | -5.90293 | 117.05231 | 38004 ft | 451 kts | 260° |
| 2026-04-23 13:58 | -5.91397 | 116.98948 | 38004 ft | 451 kts | 260° |
| 2026-04-23 13:59 | -5.92500 | 116.92699 | 38004 ft | 451 kts | 260° |
| 2026-04-23 13:59 | -5.93598 | 116.86487 | 38004 ft | 451 kts | 260° |
| 2026-04-23 14:00 | -5.94517 | 116.81286 | 38004 ft | 451 kts | 260° |
| 2026-04-23 14:00 | -5.95804 | 116.74011 | 38004 ft | 451 kts | 260° |
| 2026-04-23 14:01 | -5.96915 | 116.67726 | 38004 ft | 451 kts | 260° |
| 2026-04-23 14:01 | -5.98010 | 116.61521 | 38004 ft | 451 kts | 260° |
| 2026-04-23 14:02 | -5.99111 | 116.55279 | 38004 ft | 451 kts | 260° |
| 2026-04-23 14:02 | -6.00215 | 116.49017 | 38004 ft | 451 kts | 260° |
| 2026-04-23 14:03 | -6.01319 | 116.42748 | 38004 ft | 451 kts | 260° |
| 2026-04-23 14:03 | -6.02409 | 116.36554 | 38004 ft | 451 kts | 260° |
| 2026-04-23 14:04 | -6.03509 | 116.30283 | 38004 ft | 451 kts | 260° |
| 2026-04-23 14:04 | -6.04600 | 116.24051 | 38004 ft | 451 kts | 260° |
| 2026-04-23 14:05 | -6.05697 | 116.17798 | 38004 ft | 451 kts | 260° |
| 2026-04-23 14:05 | -6.06789 | 116.11575 | 38004 ft | 451 kts | 260° |
| 2026-04-23 14:06 | -6.07881 | 116.05341 | 38004 ft | 451 kts | 260° |
| 2026-04-23 14:06 | -6.08978 | 115.99083 | 38004 ft | 451 kts | 260° |
| 2026-04-23 14:07 | -6.10065 | 115.92877 | 38004 ft | 451 kts | 260° |
| 2026-04-23 14:07 | -6.11734 | 115.83560 | 38004 ft | 451 kts | 260° |
| 2026-04-23 14:08 | -6.12822 | 115.77414 | 38004 ft | 451 kts | 260° |
| 2026-04-23 14:08 | -6.13918 | 115.71164 | 38004 ft | 451 kts | 260° |
| 2026-04-23 14:09 | -6.15008 | 115.64926 | 38004 ft | 451 kts | 260° |
| 2026-04-23 14:09 | -6.16090 | 115.58730 | 38004 ft | 451 kts | 260° |
| 2026-04-23 14:10 | -6.17184 | 115.52455 | 38004 ft | 451 kts | 260° |
| 2026-04-23 14:10 | -6.18265 | 115.46246 | 38004 ft | 451 kts | 260° |
| 2026-04-23 14:11 | -6.19354 | 115.39996 | 38004 ft | 451 kts | 260° |
| 2026-04-23 14:11 | -6.20439 | 115.33754 | 38004 ft | 451 kts | 260° |
| 2026-04-23 14:12 | -6.21520 | 115.27508 | 38004 ft | 451 kts | 260° |
| 2026-04-23 14:12 | -6.22586 | 115.21354 | 38004 ft | 451 kts | 260° |
| 2026-04-23 14:13 | -6.23666 | 115.15121 | 38004 ft | 451 kts | 260° |
| 2026-04-23 14:13 | -6.24748 | 115.08884 | 38004 ft | 451 kts | 260° |
| 2026-04-23 14:14 | -6.25829 | 115.02651 | 38004 ft | 451 kts | 260° |
| 2026-04-23 14:14 | -6.26908 | 114.96419 | 38004 ft | 451 kts | 260° |
| 2026-04-23 14:15 | -6.27987 | 114.90188 | 38004 ft | 451 kts | 260° |
| 2026-04-23 14:15 | -6.29061 | 114.83981 | 38004 ft | 451 kts | 260° |
| 2026-04-23 14:16 | -6.30140 | 114.77735 | 38004 ft | 451 kts | 260° |
| 2026-04-23 14:16 | -6.31222 | 114.71471 | 38004 ft | 451 kts | 260° |
| 2026-04-23 14:17 | -6.32302 | 114.65215 | 38004 ft | 451 kts | 260° |
| 2026-04-23 14:17 | -6.33380 | 114.58968 | 38004 ft | 451 kts | 260° |
| 2026-04-23 14:18 | -6.34463 | 114.52685 | 38004 ft | 451 kts | 260° |
| 2026-04-23 14:18 | -6.35538 | 114.46446 | 37902 ft | 453 kts | 260° |
| 2026-04-23 14:19 | -6.36080 | 114.43293 | 37287 ft | 454 kts | 260° |
| 2026-04-23 14:19 | -6.36620 | 114.40154 | 36643 ft | 455 kts | 260° |
| 2026-04-23 14:19 | -6.37161 | 114.36997 | 35985 ft | 454 kts | 260° |
| 2026-04-23 14:19 | -6.37704 | 114.33849 | 35314 ft | 454 kts | 260° |
| 2026-04-23 14:20 | -6.38248 | 114.30668 | 34621 ft | 454 kts | 260° |
| 2026-04-23 14:20 | -6.38781 | 114.27541 | 33932 ft | 454 kts | 260° |
| 2026-04-23 14:20 | -6.39319 | 114.24393 | 33222 ft | 455 kts | 260° |
| 2026-04-23 14:20 | -6.39865 | 114.21204 | 32493 ft | 455 kts | 260° |
| 2026-04-23 14:21 | -6.40405 | 114.18048 | 31763 ft | 456 kts | 260° |
| 2026-04-23 14:21 | -6.40941 | 114.14925 | 31025 ft | 456 kts | 260° |
| 2026-04-23 14:21 | -6.41484 | 114.11761 | 30260 ft | 457 kts | 260° |
| 2026-04-23 14:21 | -6.42033 | 114.08563 | 29473 ft | 458 kts | 260° |
| 2026-04-23 14:22 | -6.42572 | 114.05417 | 28720 ft | 457 kts | 260° |
| 2026-04-23 14:22 | -6.43117 | 114.02245 | 28231 ft | 451 kts | 260° |
| 2026-04-23 14:22 | -6.43645 | 113.99169 | 27739 ft | 445 kts | 260° |
| 2026-04-23 14:22 | -6.44172 | 113.96106 | 27232 ft | 440 kts | 260° |
| 2026-04-23 14:23 | -6.44699 | 113.93040 | 26718 ft | 435 kts | 260° |
| 2026-04-23 14:23 | -6.45209 | 113.90070 | 26212 ft | 431 kts | 260° |
| 2026-04-23 14:23 | -6.45720 | 113.87118 | 25703 ft | 427 kts | 258° |
| 2026-04-23 14:23 | -6.46670 | 113.84261 | 25160 ft | 422 kts | 242° |
| 2026-04-23 14:24 | -6.48367 | 113.81872 | 24645 ft | 418 kts | 225° |
| 2026-04-23 14:24 | -6.50673 | 113.80060 | 24147 ft | 413 kts | 212° |
| 2026-04-23 14:24 | -6.53128 | 113.78535 | 23654 ft | 409 kts | 211° |
| 2026-04-23 14:24 | -6.55544 | 113.77081 | 23166 ft | 405 kts | 211° |
| 2026-04-23 14:25 | -6.57984 | 113.75607 | 22666 ft | 402 kts | 211° |
| 2026-04-23 14:25 | -6.60386 | 113.74144 | 22171 ft | 399 kts | 211° |
| 2026-04-23 14:25 | -6.62800 | 113.72663 | 21670 ft | 396 kts | 211° |
| 2026-04-23 14:25 | -6.65153 | 113.71214 | 21181 ft | 394 kts | 211° |
| 2026-04-23 14:26 | -6.67503 | 113.69762 | 20691 ft | 392 kts | 211° |
| 2026-04-23 14:26 | -6.69831 | 113.68322 | 20205 ft | 390 kts | 211° |
| 2026-04-23 14:26 | -6.72168 | 113.66876 | 19715 ft | 388 kts | 211° |
| 2026-04-23 14:26 | -6.74465 | 113.65452 | 19234 ft | 386 kts | 211° |
| 2026-04-23 14:27 | -6.76784 | 113.64015 | 18743 ft | 384 kts | 211° |
| 2026-04-23 14:27 | -6.79064 | 113.62601 | 18261 ft | 382 kts | 211° |
| 2026-04-23 14:27 | -6.81348 | 113.61185 | 17775 ft | 381 kts | 211° |
| 2026-04-23 14:27 | -6.83609 | 113.59782 | 17294 ft | 379 kts | 211° |
| 2026-04-23 14:28 | -6.85846 | 113.58395 | 16815 ft | 377 kts | 211° |
| 2026-04-23 14:28 | -6.88089 | 113.57003 | 16335 ft | 375 kts | 211° |
| 2026-04-23 14:28 | -6.90329 | 113.55614 | 15852 ft | 373 kts | 211° |
| 2026-04-23 14:28 | -6.92537 | 113.54243 | 15377 ft | 371 kts | 211° |
| 2026-04-23 14:29 | -6.94723 | 113.52887 | 14904 ft | 369 kts | 211° |
| 2026-04-23 14:29 | -6.96888 | 113.51543 | 14436 ft | 367 kts | 211° |
| 2026-04-23 14:29 | -6.99056 | 113.50197 | 13964 ft | 365 kts | 211° |
| 2026-04-23 14:29 | -7.01234 | 113.48845 | 13481 ft | 363 kts | 211° |
| 2026-04-23 14:30 | -7.03378 | 113.47514 | 13006 ft | 362 kts | 211° |
| 2026-04-23 14:30 | -7.05530 | 113.46178 | 12533 ft | 360 kts | 211° |
| 2026-04-23 14:30 | -7.07669 | 113.44849 | 12062 ft | 358 kts | 211° |
| 2026-04-23 14:30 | -7.09819 | 113.43514 | 11588 ft | 356 kts | 211° |
| 2026-04-23 14:31 | -7.11952 | 113.42194 | 11116 ft | 354 kts | 211° |
| 2026-04-23 14:31 | -7.14049 | 113.40900 | 10652 ft | 352 kts | 211° |
| 2026-04-23 14:31 | -7.16148 | 113.39602 | 10424 ft | 341 kts | 211° |
| 2026-04-23 14:31 | -7.18145 | 113.38365 | 10322 ft | 328 kts | 211° |
| 2026-04-23 14:32 | -7.20074 | 113.37168 | 10226 ft | 316 kts | 211° |
| 2026-04-23 14:32 | -7.21933 | 113.36014 | 10143 ft | 303 kts | 211° |
| 2026-04-23 14:32 | -7.23756 | 113.34881 | 9875 ft | 299 kts | 212° |
| 2026-04-23 14:32 | -7.25486 | 113.33796 | 9617 ft | 294 kts | 212° |
| 2026-04-23 14:33 | -7.27256 | 113.32682 | 9307 ft | 291 kts | 212° |
| 2026-04-23 14:33 | -7.29006 | 113.31585 | 8859 ft | 294 kts | 212° |
| 2026-04-23 14:33 | -7.30730 | 113.30508 | 8583 ft | 290 kts | 212° |
| 2026-04-23 14:33 | -7.32449 | 113.29436 | 8293 ft | 287 kts | 212° |
| 2026-04-23 14:34 | -7.34178 | 113.28361 | 7870 ft | 289 kts | 212° |
| 2026-04-23 14:34 | -7.35906 | 113.27286 | 7502 ft | 289 kts | 212° |
| 2026-04-23 14:34 | -7.37629 | 113.26215 | 7158 ft | 287 kts | 212° |
| 2026-04-23 14:34 | -7.39321 | 113.25163 | 6829 ft | 286 kts | 212° |
| 2026-04-23 14:35 | -7.41031 | 113.24100 | 6501 ft | 284 kts | 212° |
| 2026-04-23 14:35 | -7.42708 | 113.23057 | 6181 ft | 283 kts | 212° |
| 2026-04-23 14:35 | -7.44402 | 113.22001 | 5856 ft | 281 kts | 212° |
| 2026-04-23 14:35 | -7.45829 | 113.20670 | 5492 ft | 280 kts | 239° |
| 2026-04-23 14:36 | -7.46339 | 113.18813 | 5168 ft | 278 kts | 271° |
| 2026-04-23 14:36 | -7.46018 | 113.16891 | 4869 ft | 275 kts | 283° |
| 2026-04-23 14:36 | -7.45564 | 113.15015 | 4559 ft | 274 kts | 284° |
| 2026-04-23 14:36 | -7.45111 | 113.13119 | 4246 ft | 273 kts | 283° |
| 2026-04-23 14:37 | -7.44686 | 113.11256 | 3939 ft | 271 kts | 283° |
| 2026-04-23 14:37 | -7.44284 | 113.09432 | 3747 ft | 251 kts | 282° |
| 2026-04-23 14:37 | -7.43925 | 113.07767 | 3724 ft | 231 kts | 282° |
| 2026-04-23 14:37 | -7.43593 | 113.06216 | 3690 ft | 219 kts | 282° |
| 2026-04-23 14:38 | -7.43274 | 113.04726 | 3657 ft | 212 kts | 282° |
| 2026-04-23 14:38 | -7.42957 | 113.03301 | 3613 ft | 203 kts | 285° |
| 2026-04-23 14:38 | -7.42534 | 113.01948 | 3601 ft | 193 kts | 289° |
| 2026-04-23 14:38 | -7.42084 | 113.00666 | 3604 ft | 191 kts | 290° |
| 2026-04-23 14:39 | -7.41630 | 112.99388 | 3406 ft | 193 kts | 290° |
| 2026-04-23 14:39 | -7.41191 | 112.98099 | 3180 ft | 194 kts | 286° |
| 2026-04-23 14:39 | -7.40882 | 112.96764 | 2971 ft | 193 kts | 280° |
| 2026-04-23 14:39 | -7.40662 | 112.95436 | 2851 ft | 184 kts | 279° |
| 2026-04-23 14:40 | -7.40467 | 112.94191 | 2722 ft | 175 kts | 279° |
| 2026-04-23 14:40 | -7.40281 | 112.93002 | 2601 ft | 163 kts | 279° |
| 2026-04-23 14:40 | -7.40109 | 112.91914 | 2480 ft | 151 kts | 279° |
| 2026-04-23 14:40 | -7.39943 | 112.90877 | 2255 ft | 146 kts | 279° |
| 2026-04-23 14:41 | -7.39782 | 112.89871 | 1998 ft | 139 kts | 279° |
| 2026-04-23 14:41 | -7.39627 | 112.88911 | 1811 ft | 137 kts | 279° |
| 2026-04-23 14:41 | -7.39472 | 112.87949 | 1631 ft | 137 kts | 279° |
| 2026-04-23 14:41 | -7.39317 | 112.86990 | 1453 ft | 136 kts | 279° |
| 2026-04-23 14:42 | -7.39164 | 112.86041 | 1276 ft | 136 kts | 279° |
| 2026-04-23 14:42 | -7.39012 | 112.85097 | 1101 ft | 136 kts | 279° |
| 2026-04-23 14:42 | -7.38859 | 112.84147 | 925 ft | 135 kts | 279° |
| 2026-04-23 14:42 | -7.38708 | 112.83217 | 751 ft | 135 kts | 279° |
| 2026-04-23 14:43 | -7.38556 | 112.82277 | 579 ft | 135 kts | 279° |
| 2026-04-23 14:43 | -7.38412 | 112.81367 | 410 ft | 134 kts | 278° |
| 2026-04-23 14:43 | -7.38274 | 112.80464 | 196 ft | 134 kts | 279° |
| 2026-04-23 14:43 | -7.38122 | 112.79551 | 20 ft | 127 kts | 279° |
| 2026-04-23 14:44 | -7.38009 | 112.78829 | 20 ft | 78 kts | 278° |
| 2026-04-23 14:44 | -7.37947 | 112.78452 | 20 ft | 29 kts | 279° |
| 2026-04-23 14:44 | -7.37921 | 112.78300 | 20 ft | 21 kts | 279° |
| 2026-04-23 14:44 | -7.37884 | 112.78193 | 19 ft | 12 kts | 301° |
| 2026-04-23 14:45 | -7.37837 | 112.78116 | 19 ft | 13 kts | 305° |
| 2026-04-23 14:45 | -7.37779 | 112.78046 | 19 ft | 12 kts | 310° |
| 2026-04-23 14:45 | -7.37730 | 112.78029 | 19 ft | 9 kts | 30° |
| 2026-04-23 14:45 | -7.37715 | 112.78110 | 19 ft | 15 kts | 100° |
| 2026-04-23 14:46 | -7.37734 | 112.78224 | 19 ft | 16 kts | 99° |
| 2026-04-23 14:46 | -7.37753 | 112.78343 | 19 ft | 17 kts | 99° |
| 2026-04-23 14:46 | -7.37774 | 112.78468 | 19 ft | 18 kts | 99° |
| 2026-04-23 14:46 | -7.37795 | 112.78597 | 19 ft | 18 kts | 99° |
| 2026-04-23 14:47 | -7.37816 | 112.78726 | 19 ft | 18 kts | 99° |
| 2026-04-23 14:47 | -7.37837 | 112.78857 | 19 ft | 19 kts | 99° |
| 2026-04-23 14:47 | -7.37858 | 112.78989 | 19 ft | 12 kts | 98° |
| 2026-04-23 14:47 | -7.37854 | 112.79047 | 19 ft | 8 kts | 52° |
| 2026-04-23 14:48 | -7.37797 | 112.79076 | 19 ft | 10 kts | 10° |
| 2026-04-23 14:48 | -7.37722 | 112.79089 | 19 ft | 11 kts | 9° |
| 2026-04-23 14:48 | -7.37656 | 112.79099 | 19 ft | 5 kts | 9° |
| 2026-04-23 14:48 | -7.37627 | 112.79123 | 19 ft | 6 kts | 81° |
| 2026-04-23 14:49 | -7.37634 | 112.79176 | 19 ft | 8 kts | 99° |
| 2026-04-23 14:49 | -7.37645 | 112.79242 | 19 ft | 10 kts | 99° |
| 2026-04-23 14:49 | -7.37649 | 112.79269 | 19 ft | 3 kts | 93° |
| 2026-04-23 14:49 | -7.37637 | 112.79285 | 19 ft | 3 kts | 19° |
| 2026-04-23 14:50 | -7.37610 | 112.79285 | 19 ft | 3 kts | 9° |
| 2026-04-23 14:50 | -7.37581 | 112.79290 | 19 ft | 4 kts | 9° |
| 2026-04-23 14:50 | -7.37560 | 112.79294 | 19 ft | 2 kts | 9° |
| 2026-04-23 14:50 | -7.37557 | 112.79295 | 19 ft | 0 kts | 9° |